createdAt,value
2018-09-01T00:02:10.615Z,28.67
2018-09-01T00:04:39.104Z,25.17
2018-09-01T00:07:07.650Z,26.17
2018-09-01T00:09:36.736Z,25.17
2018-09-01T00:12:06.424Z,23.67
2018-09-01T00:14:34.932Z,29.87
2018-09-01T00:17:03.986Z,22.97
2018-09-01T00:19:32.805Z,24.47
2018-09-01T00:22:01.311Z,27.00
2018-09-01T00:24:29.846Z,23.97
2018-09-01T00:26:58.347Z,22.17
2018-09-01T00:29:26.895Z,28.37
2018-09-01T00:31:55.466Z,36.27
2018-09-01T00:34:23.964Z,21.63
2018-09-01T00:36:52.470Z,23.07
2018-09-01T00:39:20.969Z,22.23
2018-09-01T00:41:49.474Z,19.47
2018-09-01T00:44:17.978Z,22.10
2018-09-01T00:46:46.465Z,21.53
2018-09-01T00:49:15.047Z,21.00
2018-09-01T00:51:43.542Z,26.07
2018-09-01T00:54:12.058Z,23.73
2018-09-01T00:56:40.566Z,21.30
2018-09-01T00:59:09.074Z,20.43
2018-09-01T01:01:37.639Z,16.60
2018-09-01T01:04:06.174Z,24.30
2018-09-01T01:06:34.652Z,20.10
2018-09-01T01:09:03.262Z,20.80
2018-09-01T01:11:31.748Z,20.70
2018-09-01T01:14:00.259Z,27.20
2018-09-01T01:16:28.794Z,21.33
2018-09-01T01:18:57.334Z,21.40
2018-09-01T01:21:25.882Z,24.73
2018-09-01T01:23:54.374Z,25.63
2018-09-01T01:26:22.866Z,22.47
2018-09-01T01:28:51.398Z,24.47
2018-09-01T01:31:19.891Z,26.13
2018-09-01T01:33:48.407Z,25.27
2018-09-01T01:36:16.926Z,21.07
2018-09-01T01:38:45.477Z,22.73
2018-09-01T01:41:13.977Z,23.07
2018-09-01T01:43:42.462Z,20.67
2018-09-01T01:46:10.966Z,23.87
2018-09-01T01:48:39.463Z,21.27
2018-09-01T01:51:08.014Z,21.77
2018-09-01T01:53:36.510Z,27.50
2018-09-01T01:56:05.047Z,21.93
2018-09-01T01:58:33.521Z,19.47
2018-09-01T02:01:02.036Z,20.70
2018-09-01T02:03:30.534Z,21.80
2018-09-01T02:05:59.038Z,20.63
2018-09-01T02:08:27.559Z,19.30
2018-09-01T02:10:56.103Z,24.03
2018-09-01T02:13:24.596Z,21.50
2018-09-01T02:15:53.095Z,21.93
2018-09-01T02:18:21.566Z,18.37
2018-09-01T02:20:50.066Z,18.00
2018-09-01T02:23:18.534Z,18.87
2018-09-01T02:25:47.023Z,16.43
2018-09-01T02:28:15.511Z,23.53
2018-09-01T02:30:44.031Z,19.33
2018-09-01T02:33:12.854Z,20.70
2018-09-01T02:35:41.342Z,17.83
2018-09-01T02:38:09.863Z,19.53
2018-09-01T02:40:38.363Z,18.50
2018-09-01T02:43:06.869Z,22.93
2018-09-01T02:45:35.375Z,18.97
2018-09-01T02:48:03.856Z,18.83
2018-09-01T02:50:32.351Z,18.67
2018-09-01T02:53:00.843Z,19.27
2018-09-01T02:55:29.323Z,24.50
2018-09-01T02:57:57.830Z,23.13
2018-09-01T03:00:31.678Z,19.93
2018-09-01T03:03:00.207Z,21.90
2018-09-01T03:05:28.687Z,18.17
2018-09-01T03:07:57.194Z,19.60
2018-09-01T03:10:25.718Z,23.97
2018-09-01T03:12:54.199Z,20.77
2018-09-01T03:15:22.673Z,23.27
2018-09-01T03:17:51.214Z,22.03
2018-09-01T03:20:19.726Z,22.03
2018-09-01T03:22:48.239Z,28.83
2018-09-01T03:25:16.706Z,25.13
2018-09-01T03:27:45.186Z,26.57
2018-09-01T03:30:13.671Z,25.80
2018-09-01T03:32:42.175Z,22.27
2018-09-01T03:35:10.662Z,24.33
2018-09-01T03:37:39.146Z,25.53
2018-09-01T03:40:07.913Z,24.60
2018-09-01T03:42:36.413Z,21.47
2018-09-01T03:45:05.036Z,19.83
2018-09-01T03:47:33.538Z,30.10
2018-09-01T03:50:02.035Z,19.30
2018-09-01T03:52:30.542Z,22.17
2018-09-01T03:54:59.010Z,22.33
2018-09-01T03:57:27.505Z,19.83
2018-09-01T03:59:55.986Z,24.73
2018-09-01T04:02:24.527Z,28.27
2018-09-01T04:04:53.010Z,21.60
2018-09-01T04:07:21.518Z,22.10
2018-09-01T04:09:49.975Z,25.50
2018-09-01T04:12:18.483Z,22.17
2018-09-01T04:14:46.980Z,25.57
2018-09-01T04:17:15.449Z,22.13
2018-09-01T04:19:43.942Z,23.90
2018-09-01T04:22:12.438Z,26.87
2018-09-01T04:24:40.913Z,22.30
2018-09-01T04:27:09.410Z,23.23
2018-09-01T04:29:37.902Z,22.00
2018-09-01T04:32:06.410Z,22.37
2018-09-01T04:34:34.894Z,24.80
2018-09-01T04:37:03.406Z,25.37
2018-09-01T04:39:31.897Z,23.23
2018-09-01T04:42:00.393Z,21.40
2018-09-01T04:44:28.858Z,23.97
2018-09-01T04:46:57.423Z,26.27
2018-09-01T04:49:25.910Z,28.63
2018-09-01T04:51:54.419Z,24.73
2018-09-01T04:54:22.921Z,22.70
2018-09-01T04:56:51.457Z,25.93
2018-09-01T04:59:19.963Z,24.10
2018-09-01T05:01:48.479Z,25.73
2018-09-01T05:04:16.967Z,20.27
2018-09-01T05:06:45.469Z,22.67
2018-09-01T05:09:13.958Z,26.33
2018-09-01T05:11:42.498Z,24.30
2018-09-01T05:14:11.375Z,21.63
2018-09-01T05:16:39.907Z,20.00
2018-09-01T05:19:08.459Z,19.97
2018-09-01T05:21:36.943Z,22.87
2018-09-01T05:24:05.570Z,19.27
2018-09-01T05:26:34.103Z,25.23
2018-09-01T05:29:02.644Z,21.27
2018-09-01T05:31:31.174Z,26.07
2018-09-01T05:33:59.734Z,21.40
2018-09-01T05:36:28.250Z,22.73
2018-09-01T05:38:56.814Z,20.53
2018-09-01T05:41:25.307Z,17.97
2018-09-01T05:43:53.791Z,17.87
2018-09-01T05:46:22.294Z,18.13
2018-09-01T05:48:50.783Z,17.20
2018-09-01T05:51:19.276Z,16.57
2018-09-01T05:53:47.746Z,19.20
2018-09-01T05:56:16.215Z,15.40
2018-09-01T05:58:44.707Z,22.70
2018-09-01T06:01:13.234Z,14.53
2018-09-01T06:03:42.699Z,17.70
2018-09-01T06:06:11.453Z,19.03
2018-09-01T06:08:39.808Z,19.27
2018-09-01T06:11:08.270Z,14.53
2018-09-01T06:13:36.830Z,16.30
2018-09-01T06:16:05.348Z,15.67
2018-09-01T06:18:33.874Z,16.17
2018-09-01T06:21:02.341Z,14.17
2018-09-01T06:23:30.884Z,15.67
2018-09-01T06:25:59.431Z,13.40
2018-09-01T06:28:34.372Z,17.37
2018-09-01T06:31:02.963Z,13.83
2018-09-01T06:33:31.552Z,14.80
2018-09-01T06:36:00.071Z,12.40
2018-09-01T06:38:28.600Z,9.53
2018-09-01T06:40:57.079Z,11.40
2018-09-01T06:43:25.553Z,12.70
2018-09-01T06:45:54.038Z,12.90
2018-09-01T06:48:22.522Z,8.80
2018-09-01T06:50:50.990Z,13.20
2018-09-01T06:53:19.482Z,12.00
2018-09-01T06:55:47.982Z,9.90
2018-09-01T06:58:16.485Z,11.93
2018-09-01T07:00:45.074Z,8.37
2018-09-01T07:03:13.639Z,8.70
2018-09-01T07:05:42.142Z,11.50
2018-09-01T07:08:10.595Z,11.73
2018-09-01T07:10:39.083Z,11.87
2018-09-01T07:13:07.576Z,12.30
2018-09-01T07:15:36.078Z,14.30
2018-09-01T07:18:04.646Z,12.53
2018-09-01T07:20:33.122Z,12.83
2018-09-01T07:23:01.615Z,7.43
2018-09-01T07:25:30.159Z,11.60
2018-09-01T07:27:58.626Z,9.37
2018-09-01T07:30:27.261Z,7.70
2018-09-01T07:32:55.648Z,9.67
2018-09-01T07:35:24.130Z,9.93
2018-09-01T07:37:52.610Z,10.07
2018-09-01T07:40:21.098Z,11.60
2018-09-01T07:42:49.610Z,9.47
2018-09-01T07:45:18.153Z,9.70
2018-09-01T07:47:46.622Z,8.10
2018-09-01T07:50:15.143Z,12.97
2018-09-01T07:52:43.614Z,7.27
2018-09-01T07:55:12.096Z,9.93
2018-09-01T07:57:40.582Z,7.43
2018-09-01T08:00:09.127Z,8.97
2018-09-01T08:02:37.623Z,9.13
2018-09-01T08:05:06.646Z,7.73
2018-09-01T08:07:35.198Z,9.67
2018-09-01T08:10:03.643Z,10.20
2018-09-01T08:12:32.114Z,9.13
2018-09-01T08:15:00.619Z,9.47
2018-09-01T08:17:29.090Z,8.07
2018-09-01T08:19:57.588Z,7.63
2018-09-01T08:22:26.075Z,6.00
2018-09-01T08:24:54.599Z,7.80
2018-09-01T08:27:23.106Z,4.63
2018-09-01T08:29:51.711Z,13.20
2018-09-01T08:32:20.182Z,6.33
2018-09-01T08:34:48.776Z,9.00
2018-09-01T08:37:17.249Z,8.43
2018-09-01T08:39:45.763Z,5.07
2018-09-01T08:42:14.263Z,10.00
2018-09-01T08:44:42.753Z,5.13
2018-09-01T08:47:11.218Z,5.57
2018-09-01T08:49:39.727Z,11.00
2018-09-01T08:52:08.204Z,8.63
2018-09-01T08:54:36.770Z,5.30
2018-09-01T08:57:05.295Z,5.47
2018-09-01T08:59:33.791Z,6.93
2018-09-01T09:02:02.878Z,7.40
2018-09-01T09:04:31.396Z,6.50
2018-09-01T09:06:59.879Z,6.23
2018-09-01T09:09:28.369Z,5.77
2018-09-01T09:11:56.851Z,5.83
2018-09-01T09:14:25.387Z,10.27
2018-09-01T09:16:53.963Z,6.57
2018-09-01T09:19:22.448Z,5.83
2018-09-01T09:21:51.278Z,5.83
2018-09-01T09:24:19.734Z,8.40
2018-09-01T09:26:48.222Z,5.30
2018-09-01T09:29:16.706Z,6.95
2018-09-01T09:31:45.214Z,6.30
2018-09-01T09:34:13.691Z,9.63
2018-09-01T09:36:42.194Z,6.83
2018-09-01T09:39:11.240Z,6.30
2018-09-01T09:41:40.763Z,3.80
2018-09-01T09:44:09.299Z,10.60
2018-09-01T09:46:37.946Z,9.70
2018-09-01T09:49:06.822Z,2.97
2018-09-01T09:51:35.446Z,3.73
2018-09-01T09:54:03.927Z,9.50
2018-09-01T09:56:32.445Z,12.10
2018-09-01T09:59:01.039Z,4.53
2018-09-01T10:01:37.647Z,7.27
2018-09-01T10:04:06.503Z,5.40
2018-09-01T10:06:35.242Z,7.67
2018-09-01T10:09:04.472Z,7.25
2018-09-01T10:11:32.995Z,5.53
2018-09-01T10:14:01.458Z,39.83
2018-09-01T10:16:29.977Z,11.00
2018-09-01T10:18:58.468Z,5.50
2018-09-01T10:21:27.042Z,5.83
2018-09-01T10:23:55.534Z,9.50
2018-09-01T10:26:24.039Z,7.13
2018-09-01T10:28:52.611Z,11.87
2018-09-01T10:31:21.134Z,10.77
2018-09-01T10:33:49.634Z,16.43
2018-09-01T10:36:18.174Z,7.37
2018-09-01T10:38:46.646Z,5.87
2018-09-01T10:41:15.148Z,5.63
2018-09-01T10:43:43.666Z,6.67
2018-09-01T10:46:12.188Z,5.63
2018-09-01T10:48:41.295Z,6.53
2018-09-01T10:51:09.803Z,5.90
2018-09-01T10:53:38.274Z,4.07
2018-09-01T10:56:07.042Z,6.90
2018-09-01T10:58:35.558Z,7.60
2018-09-01T11:01:04.923Z,7.20
2018-09-01T11:03:33.397Z,8.83
2018-09-01T11:06:01.940Z,7.00
2018-09-01T11:08:30.422Z,10.63
2018-09-01T11:10:58.908Z,9.00
2018-09-01T11:13:27.392Z,5.87
2018-09-01T11:15:55.922Z,6.80
2018-09-01T11:18:24.390Z,7.42
2018-09-01T11:20:52.997Z,12.98
2018-09-01T11:23:21.465Z,6.97
2018-09-01T11:25:49.941Z,9.33
2018-09-01T11:28:18.452Z,9.17
2018-09-01T11:30:46.942Z,5.17
2018-09-01T11:33:15.435Z,6.27
2018-09-01T11:35:43.983Z,6.45
2018-09-01T11:38:12.467Z,10.40
2018-09-01T11:40:40.959Z,6.27
2018-09-01T11:43:09.616Z,7.90
2018-09-01T11:45:38.010Z,17.03
2018-09-01T11:48:06.762Z,8.28
2018-09-01T11:50:35.216Z,8.45
2018-09-01T11:53:03.783Z,6.67
2018-09-01T11:55:32.231Z,17.43
2018-09-01T11:58:00.715Z,9.30
2018-09-01T12:00:29.235Z,7.47
2018-09-01T12:02:57.763Z,7.15
2018-09-01T12:05:26.419Z,10.03
2018-09-01T12:07:55.079Z,6.08
2018-09-01T12:10:23.594Z,8.23
2018-09-01T12:12:52.094Z,6.27
2018-09-01T12:15:20.632Z,5.27
2018-09-01T12:17:49.104Z,6.97
2018-09-01T12:20:17.619Z,8.35
2018-09-01T12:22:46.099Z,6.67
2018-09-01T12:25:14.590Z,6.77
2018-09-01T12:27:43.202Z,6.57
2018-09-01T12:30:11.718Z,6.43
2018-09-01T12:32:40.235Z,9.60
2018-09-01T12:35:08.747Z,9.10
2018-09-01T12:37:37.251Z,7.97
2018-09-01T12:40:07.131Z,7.47
2018-09-01T12:42:35.803Z,9.37
2018-09-01T12:45:04.430Z,6.53
2018-09-01T12:47:32.942Z,6.65
2018-09-01T12:50:01.883Z,14.40
2018-09-01T12:52:30.717Z,5.62
2018-09-01T12:55:00.227Z,7.63
2018-09-01T12:57:28.806Z,12.20
2018-09-01T12:59:57.291Z,4.65
2018-09-01T13:02:26.349Z,5.77
2018-09-01T13:04:54.859Z,5.13
2018-09-01T13:07:23.356Z,6.87
2018-09-01T13:09:51.822Z,8.00
2018-09-01T13:12:20.323Z,10.17
2018-09-01T13:14:48.807Z,7.43
2018-09-01T13:17:17.311Z,6.90
2018-09-01T13:19:45.909Z,10.60
2018-09-01T13:22:14.299Z,8.65
2018-09-01T13:24:42.822Z,6.17
2018-09-01T13:27:11.305Z,7.40
2018-09-01T13:29:39.832Z,7.87
2018-09-01T13:32:08.332Z,7.40
2018-09-01T13:34:41.788Z,5.77
2018-09-01T13:37:10.351Z,7.57
2018-09-01T13:39:38.843Z,5.17
2018-09-01T13:42:07.314Z,6.37
2018-09-01T13:44:35.837Z,7.20
2018-09-01T13:47:04.350Z,11.93
2018-09-01T13:49:33.061Z,7.10
2018-09-01T13:52:01.633Z,8.20
2018-09-01T13:54:30.251Z,5.83
2018-09-01T13:56:58.811Z,7.87
2018-09-01T13:59:27.420Z,7.23
2018-09-01T14:01:55.993Z,9.30
2018-09-01T14:04:24.622Z,7.53
2018-09-01T14:06:53.207Z,7.90
2018-09-01T14:09:21.784Z,10.77
2018-09-01T14:11:50.339Z,7.00
2018-09-01T14:14:18.970Z,7.67
2018-09-01T14:16:47.535Z,8.33
2018-09-01T14:19:16.030Z,11.97
2018-09-01T14:21:44.511Z,6.73
2018-09-01T14:24:13.111Z,8.50
2018-09-01T14:26:41.603Z,9.58
2018-09-01T14:29:10.132Z,6.93
2018-09-01T14:31:38.623Z,6.57
2018-09-01T14:34:07.313Z,7.47
2018-09-01T14:36:35.983Z,8.17
2018-09-01T14:39:06.226Z,10.20
2018-09-01T14:41:34.711Z,9.70
2018-09-01T14:44:03.249Z,7.53
2018-09-01T14:46:31.724Z,12.13
2018-09-01T14:49:00.218Z,8.73
2018-09-01T14:51:28.689Z,10.47
2018-09-01T14:53:57.198Z,9.80
2018-09-01T14:56:25.686Z,7.30
2018-09-01T14:58:54.209Z,8.67
2018-09-01T15:01:22.688Z,7.93
2018-09-01T15:03:51.179Z,7.33
2018-09-01T15:06:19.694Z,6.87
2018-09-01T15:08:48.187Z,6.67
2018-09-01T15:11:16.682Z,6.70
2018-09-01T15:13:45.198Z,12.50
2018-09-01T15:16:13.703Z,6.20
2018-09-01T15:18:42.191Z,10.32
2018-09-01T15:21:10.678Z,6.87
2018-09-01T15:23:39.146Z,7.12
2018-09-01T15:26:08.062Z,6.10
2018-09-01T15:28:37.219Z,6.62
2018-09-01T15:31:05.957Z,14.55
2018-09-01T15:33:34.664Z,12.83
2018-09-01T15:36:03.477Z,8.45
2018-09-01T15:38:32.199Z,9.27
2018-09-01T15:41:00.852Z,7.62
2018-09-01T15:43:29.590Z,8.20
2018-09-01T15:45:58.375Z,9.10
2018-09-01T15:48:27.244Z,11.17
2018-09-01T15:50:56.302Z,5.13
2018-09-01T15:53:25.872Z,9.77
2018-09-01T15:56:14.916Z,9.85
2018-09-01T15:58:44.163Z,9.07
2018-09-01T16:01:43.597Z,6.83
2018-09-01T16:04:23.380Z,6.78
2018-09-01T16:06:52.056Z,7.03
2018-09-01T16:09:20.570Z,10.33
2018-09-01T16:11:49.141Z,8.33
2018-09-01T16:14:17.667Z,11.73
2018-09-01T16:16:46.289Z,8.33
2018-09-01T16:19:14.875Z,6.87
2018-09-01T16:21:43.351Z,11.90
2018-09-01T16:24:11.826Z,11.55
2018-09-01T16:26:40.431Z,9.13
2018-09-01T16:29:08.922Z,6.67
2018-09-01T16:31:37.431Z,7.47
2018-09-01T16:34:05.999Z,10.07
2018-09-01T16:36:34.519Z,6.90
2018-09-01T16:39:03.399Z,8.50
2018-09-01T16:41:31.879Z,8.50
2018-09-01T16:44:00.359Z,8.10
2018-09-01T16:46:28.879Z,7.90
2018-09-01T16:48:57.364Z,10.00
2018-09-01T16:51:25.928Z,10.53
2018-09-01T16:53:54.403Z,7.07
2018-09-01T16:56:22.892Z,6.43
2018-09-01T16:58:51.375Z,10.73
2018-09-01T17:01:19.874Z,6.63
2018-09-01T17:03:48.334Z,8.87
2018-09-01T17:06:16.873Z,5.43
2018-09-01T17:08:45.342Z,8.10
2018-09-01T17:11:13.884Z,6.90
2018-09-01T17:13:43.383Z,7.67
2018-09-01T17:16:11.882Z,7.37
2018-09-01T17:18:40.439Z,14.37
2018-09-01T17:21:08.954Z,7.47
2018-09-01T17:23:37.422Z,11.13
2018-09-01T17:26:05.961Z,12.20
2018-09-01T17:28:34.427Z,9.17
2018-09-01T17:31:02.974Z,11.40
2018-09-01T17:33:31.579Z,9.03
2018-09-01T17:36:00.074Z,8.40
2018-09-01T17:38:28.535Z,10.17
2018-09-01T17:40:57.042Z,7.47
2018-09-01T17:43:25.522Z,5.23
2018-09-01T17:45:54.034Z,7.90
2018-09-01T17:48:22.514Z,11.83
2018-09-01T17:50:51.091Z,6.50
2018-09-01T17:53:19.560Z,10.03
2018-09-01T17:55:48.043Z,10.20
2018-09-01T17:58:16.526Z,6.90
2018-09-01T18:00:45.310Z,10.43
2018-09-01T18:03:13.791Z,6.57
2018-09-01T18:05:42.286Z,8.77
2018-09-01T18:08:10.771Z,11.80
2018-09-01T18:10:39.272Z,9.87
2018-09-01T18:13:07.770Z,7.00
2018-09-01T18:15:36.244Z,7.90
2018-09-01T18:18:04.783Z,11.60
2018-09-01T18:20:33.252Z,8.20
2018-09-01T18:23:01.786Z,11.67
2018-09-01T18:25:30.250Z,7.57
2018-09-01T18:27:58.775Z,10.07
2018-09-01T18:30:27.270Z,9.40
2018-09-01T18:32:55.736Z,6.93
2018-09-01T18:35:24.272Z,7.97
2018-09-01T18:37:52.698Z,8.67
2018-09-01T18:40:21.195Z,11.67
2018-09-01T18:42:49.694Z,7.20
2018-09-01T18:45:18.191Z,6.97
2018-09-01T18:47:46.675Z,11.13
2018-09-01T18:50:15.214Z,7.80
2018-09-01T18:52:43.686Z,8.50
2018-09-01T18:55:12.162Z,11.27
2018-09-01T18:57:40.627Z,8.40
2018-09-01T19:00:09.178Z,9.20
2018-09-01T19:02:37.722Z,5.73
2018-09-01T19:05:06.307Z,5.40
2018-09-01T19:07:34.803Z,7.10
2018-09-01T19:10:03.315Z,8.77
2018-09-01T19:12:31.810Z,10.47
2018-09-01T19:15:00.277Z,9.50
2018-09-01T19:17:28.757Z,6.73
2018-09-01T19:19:57.224Z,8.03
2018-09-01T19:22:25.710Z,7.67
2018-09-01T19:24:54.242Z,14.73
2018-09-01T19:27:22.766Z,9.63
2018-09-01T19:29:51.240Z,11.40
2018-09-01T19:32:19.720Z,9.77
2018-09-01T19:34:48.209Z,9.93
2018-09-01T19:37:16.720Z,11.33
2018-09-01T19:39:45.179Z,6.77
2018-09-01T19:42:14.043Z,9.17
2018-09-01T19:44:42.549Z,9.23
2018-09-01T19:47:11.020Z,6.53
2018-09-01T19:49:39.520Z,9.07
2018-09-01T19:52:08.015Z,10.30
2018-09-01T19:54:36.507Z,9.10
2018-09-01T19:57:05.412Z,12.70
2018-09-01T19:59:33.946Z,12.20
2018-09-01T20:02:02.452Z,13.67
2018-09-01T20:04:30.956Z,8.87
2018-09-01T20:06:59.430Z,9.87
2018-09-01T20:09:27.952Z,13.50
2018-09-01T20:11:56.446Z,7.00
2018-09-01T20:14:25.056Z,9.70
2018-09-01T20:16:54.034Z,10.33
2018-09-01T20:19:22.539Z,9.60
2018-09-01T20:21:51.362Z,15.17
2018-09-01T20:24:19.859Z,12.00
2018-09-01T20:26:48.394Z,12.07
2018-09-01T20:29:16.910Z,13.77
2018-09-01T20:31:45.410Z,12.83
2018-09-01T20:34:13.931Z,14.93
2018-09-01T20:36:43.386Z,12.87
2018-09-01T20:39:11.886Z,12.90
2018-09-01T20:41:40.371Z,9.90
2018-09-01T20:44:08.865Z,10.43
2018-09-01T20:46:37.375Z,10.83
2018-09-01T20:49:05.884Z,12.20
2018-09-01T20:51:34.375Z,10.70
2018-09-01T20:54:02.922Z,13.43
2018-09-01T20:56:31.454Z,10.03
2018-09-01T20:58:59.966Z,15.17
2018-09-01T21:01:28.458Z,11.80
2018-09-01T21:03:56.984Z,10.20
2018-09-01T21:06:25.484Z,14.47
2018-09-01T21:08:53.979Z,13.50
2018-09-01T21:11:22.455Z,10.90
2018-09-01T21:13:50.953Z,14.63
2018-09-01T21:16:19.437Z,15.13
2018-09-01T21:18:47.933Z,16.30
2018-09-01T21:21:16.414Z,17.03
2018-09-01T21:23:44.923Z,13.00
2018-09-01T21:26:13.426Z,14.97
2018-09-01T21:28:41.938Z,16.97
2018-09-01T21:31:10.458Z,16.57
2018-09-01T21:33:39.529Z,13.23
2018-09-01T21:36:08.078Z,15.20
2018-09-01T21:38:36.595Z,15.90
2018-09-01T21:41:05.119Z,23.33
2018-09-01T21:43:33.650Z,15.30
2018-09-01T21:46:02.270Z,14.10
2018-09-01T21:48:30.755Z,16.00
2018-09-01T21:50:59.305Z,16.17
2018-09-01T21:53:27.791Z,13.00
2018-09-01T21:55:56.338Z,14.70
2018-09-01T21:58:24.827Z,17.93
2018-09-01T22:00:57.550Z,19.77
2018-09-01T22:03:26.046Z,14.93
2018-09-01T22:05:54.543Z,21.10
2018-09-01T22:08:23.026Z,16.00
2018-09-01T22:10:51.566Z,18.60
2018-09-01T22:13:20.078Z,14.27
2018-09-01T22:15:48.622Z,14.90
2018-09-01T22:18:17.102Z,19.77
2018-09-01T22:20:45.590Z,17.63
2018-09-01T22:23:14.078Z,17.83
2018-09-01T22:25:42.582Z,17.63
2018-09-01T22:28:11.100Z,19.33
2018-09-01T22:30:39.660Z,17.67
2018-09-01T22:33:08.138Z,23.27
2018-09-01T22:35:36.667Z,23.93
2018-09-01T22:38:05.178Z,23.37
2018-09-01T22:40:33.695Z,21.70
2018-09-01T22:43:02.190Z,20.20
2018-09-01T22:45:30.737Z,19.23
2018-09-01T22:47:59.227Z,22.87
2018-09-01T22:50:27.753Z,21.37
2018-09-01T22:52:56.254Z,22.60
2018-09-01T22:55:24.751Z,21.03
2018-09-01T22:57:53.242Z,24.37
2018-09-01T23:00:21.754Z,23.97
2018-09-01T23:02:50.267Z,25.77
2018-09-01T23:05:18.842Z,22.90
2018-09-01T23:07:47.321Z,23.87
2018-09-01T23:10:15.845Z,22.40
2018-09-01T23:12:44.354Z,25.13
2018-09-01T23:15:12.899Z,22.00
2018-09-01T23:17:41.410Z,19.63
2018-09-01T23:20:09.915Z,22.03
2018-09-01T23:22:38.417Z,22.23
2018-09-01T23:25:06.967Z,23.70
2018-09-01T23:27:35.446Z,23.47
2018-09-01T23:30:04.022Z,21.50
2018-09-01T23:32:32.549Z,22.63
2018-09-01T23:35:01.029Z,21.73
2018-09-01T23:37:29.491Z,24.47
2018-09-01T23:39:57.990Z,22.33
2018-09-01T23:42:26.468Z,22.93
2018-09-01T23:44:54.983Z,24.70
2018-09-01T23:47:23.526Z,23.90
2018-09-01T23:49:51.991Z,21.47
2018-09-01T23:52:20.504Z,22.93
2018-09-01T23:54:48.978Z,25.13
2018-09-01T23:57:17.567Z,37.87
2018-09-01T23:59:46.115Z,19.83
